sensor_id;sensor_type;location;lat;lon;timestamp;P1;durP1;ratioP1;P2;durP2;ratioP2
38111;SDS011;64011;56.312;44.048;2023-09-18T00:00:17;15.07;;;3.72;;
38111;SDS011;64011;56.312;44.048;2023-09-18T00:02:18;11.35;;;3.80;;
38111;SDS011;64011;56.312;44.048;2023-09-18T00:04:19;10.25;;;3.60;;
38111;SDS011;64011;56.312;44.048;2023-09-18T00:06:20;11.35;;;3.47;;
38111;SDS011;64011;56.312;44.048;2023-09-18T00:08:23;9.70;;;3.63;;
38111;SDS011;64011;56.312;44.048;2023-09-18T00:10:25;13.43;;;3.90;;
38111;SDS011;64011;56.312;44.048;2023-09-18T00:12:26;9.82;;;3.65;;
38111;SDS011;64011;56.312;44.048;2023-09-18T00:14:27;10.27;;;3.88;;
38111;SDS011;64011;56.312;44.048;2023-09-18T00:16:28;9.90;;;3.33;;
38111;SDS011;64011;56.312;44.048;2023-09-18T00:18:29;12.25;;;3.80;;
38111;SDS011;64011;56.312;44.048;2023-09-18T00:20:30;10.27;;;3.88;;
38111;SDS011;64011;56.312;44.048;2023-09-18T00:22:30;10.93;;;3.75;;
38111;SDS011;64011;56.312;44.048;2023-09-18T00:24:33;12.98;;;4.35;;
38111;SDS011;64011;56.312;44.048;2023-09-18T00:26:34;12.73;;;4.22;;
38111;SDS011;64011;56.312;44.048;2023-09-18T00:28:35;9.23;;;3.50;;
38111;SDS011;64011;56.312;44.048;2023-09-18T00:30:37;9.85;;;3.80;;
38111;SDS011;64011;56.312;44.048;2023-09-18T00:32:38;11.40;;;3.70;;
38111;SDS011;64011;56.312;44.048;2023-09-18T00:34:39;10.60;;;3.67;;
38111;SDS011;64011;56.312;44.048;2023-09-18T00:36:40;11.63;;;3.80;;
38111;SDS011;64011;56.312;44.048;2023-09-18T00:38:40;12.48;;;4.03;;
38111;SDS011;64011;56.312;44.048;2023-09-18T00:40:43;11.40;;;3.80;;
38111;SDS011;64011;56.312;44.048;2023-09-18T00:42:44;13.30;;;3.97;;
38111;SDS011;64011;56.312;44.048;2023-09-18T00:44:45;9.05;;;3.60;;
38111;SDS011;64011;56.312;44.048;2023-09-18T00:46:46;12.30;;;4.00;;
38111;SDS011;64011;56.312;44.048;2023-09-18T00:48:47;11.30;;;3.78;;
38111;SDS011;64011;56.312;44.048;2023-09-18T00:50:48;11.00;;;3.70;;
38111;SDS011;64011;56.312;44.048;2023-09-18T00:52:49;9.30;;;3.55;;
38111;SDS011;64011;56.312;44.048;2023-09-18T00:54:50;10.60;;;3.80;;
38111;SDS011;64011;56.312;44.048;2023-09-18T00:56:53;12.35;;;4.53;;
38111;SDS011;64011;56.312;44.048;2023-09-18T00:58:54;10.88;;;3.83;;
38111;SDS011;64011;56.312;44.048;2023-09-18T01:00:55;11.48;;;4.03;;
38111;SDS011;64011;56.312;44.048;2023-09-18T01:02:56;13.45;;;4.00;;
38111;SDS011;64011;56.312;44.048;2023-09-18T01:04:57;13.93;;;4.18;;
38111;SDS011;64011;56.312;44.048;2023-09-18T01:06:58;11.95;;;3.70;;
38111;SDS011;64011;56.312;44.048;2023-09-18T01:08:59;9.95;;;3.63;;
38111;SDS011;64011;56.312;44.048;2023-09-18T01:11:01;10.02;;;3.45;;
38111;SDS011;64011;56.312;44.048;2023-09-18T01:13:07;9.82;;;3.67;;
38111;SDS011;64011;56.312;44.048;2023-09-18T01:15:12;11.25;;;4.00;;
38111;SDS011;64011;56.312;44.048;2023-09-18T01:17:17;9.30;;;3.58;;
38111;SDS011;64011;56.312;44.048;2023-09-18T01:19:28;12.68;;;3.90;;
38111;SDS011;64011;56.312;44.048;2023-09-18T01:21:35;11.85;;;3.58;;
38111;SDS011;64011;56.312;44.048;2023-09-18T01:23:37;9.95;;;3.60;;
38111;SDS011;64011;56.312;44.048;2023-09-18T01:25:38;13.45;;;3.60;;
38111;SDS011;64011;56.312;44.048;2023-09-18T01:27:38;11.10;;;3.88;;
38111;SDS011;64011;56.312;44.048;2023-09-18T01:29:39;10.82;;;4.05;;
38111;SDS011;64011;56.312;44.048;2023-09-18T01:31:40;9.80;;;3.53;;
38111;SDS011;64011;56.312;44.048;2023-09-18T01:33:41;11.10;;;3.80;;
38111;SDS011;64011;56.312;44.048;2023-09-18T01:35:42;13.52;;;3.85;;
38111;SDS011;64011;56.312;44.048;2023-09-18T01:37:45;11.25;;;3.50;;
38111;SDS011;64011;56.312;44.048;2023-09-18T01:39:47;11.98;;;3.80;;
38111;SDS011;64011;56.312;44.048;2023-09-18T01:41:50;9.63;;;3.75;;
38111;SDS011;64011;56.312;44.048;2023-09-18T01:43:51;11.57;;;3.78;;
38111;SDS011;64011;56.312;44.048;2023-09-18T01:45:53;11.00;;;4.03;;
38111;SDS011;64011;56.312;44.048;2023-09-18T01:47:53;13.00;;;4.03;;
38111;SDS011;64011;56.312;44.048;2023-09-18T01:49:54;12.10;;;4.15;;
38111;SDS011;64011;56.312;44.048;2023-09-18T01:51:55;14.40;;;4.35;;
38111;SDS011;64011;56.312;44.048;2023-09-18T01:53:56;13.73;;;4.43;;
38111;SDS011;64011;56.312;44.048;2023-09-18T01:55:59;14.10;;;4.55;;
38111;SDS011;64011;56.312;44.048;2023-09-18T01:57:59;9.75;;;4.03;;
38111;SDS011;64011;56.312;44.048;2023-09-18T02:00:00;11.32;;;3.85;;
38111;SDS011;64011;56.312;44.048;2023-09-18T02:02:01;11.45;;;4.00;;
38111;SDS011;64011;56.312;44.048;2023-09-18T02:04:02;10.70;;;3.90;;
38111;SDS011;64011;56.312;44.048;2023-09-18T02:06:03;10.48;;;4.18;;
38111;SDS011;64011;56.312;44.048;2023-09-18T02:08:04;11.10;;;3.92;;
38111;SDS011;64011;56.312;44.048;2023-09-18T02:10:05;11.65;;;3.97;;
38111;SDS011;64011;56.312;44.048;2023-09-18T02:12:09;11.63;;;4.22;;
38111;SDS011;64011;56.312;44.048;2023-09-18T02:14:10;12.75;;;4.53;;
38111;SDS011;64011;56.312;44.048;2023-09-18T02:16:14;13.63;;;3.80;;
38111;SDS011;64011;56.312;44.048;2023-09-18T02:18:15;10.70;;;3.58;;
38111;SDS011;64011;56.312;44.048;2023-09-18T02:20:16;12.98;;;4.13;;
38111;SDS011;64011;56.312;44.048;2023-09-18T02:22:17;13.48;;;4.25;;
38111;SDS011;64011;56.312;44.048;2023-09-18T02:24:18;11.05;;;4.20;;
38111;SDS011;64011;56.312;44.048;2023-09-18T02:26:20;11.32;;;4.22;;
38111;SDS011;64011;56.312;44.048;2023-09-18T02:28:23;12.45;;;4.20;;
38111;SDS011;64011;56.312;44.048;2023-09-18T02:30:24;11.13;;;4.03;;
38111;SDS011;64011;56.312;44.048;2023-09-18T02:32:25;11.15;;;4.10;;
38111;SDS011;64011;56.312;44.048;2023-09-18T02:34:26;12.45;;;4.32;;
38111;SDS011;64011;56.312;44.048;2023-09-18T02:36:27;11.50;;;4.20;;
38111;SDS011;64011;56.312;44.048;2023-09-18T02:38:28;13.48;;;4.60;;
38111;SDS011;64011;56.312;44.048;2023-09-18T02:40:29;13.75;;;4.53;;
38111;SDS011;64011;56.312;44.048;2023-09-18T02:42:30;14.13;;;4.80;;
38111;SDS011;64011;56.312;44.048;2023-09-18T02:44:32;13.40;;;4.70;;
38111;SDS011;64011;56.312;44.048;2023-09-18T02:46:33;13.02;;;4.75;;
38111;SDS011;64011;56.312;44.048;2023-09-18T02:48:34;11.60;;;4.70;;
38111;SDS011;64011;56.312;44.048;2023-09-18T02:50:35;13.40;;;5.25;;
38111;SDS011;64011;56.312;44.048;2023-09-18T02:52:36;12.55;;;5.20;;
38111;SDS011;64011;56.312;44.048;2023-09-18T02:54:37;15.32;;;5.07;;
38111;SDS011;64011;56.312;44.048;2023-09-18T02:56:37;12.68;;;4.82;;
38111;SDS011;64011;56.312;44.048;2023-09-18T02:58:38;13.77;;;5.05;;
38111;SDS011;64011;56.312;44.048;2023-09-18T03:00:42;11.98;;;4.95;;
38111;SDS011;64011;56.312;44.048;2023-09-18T03:02:43;13.98;;;5.13;;
38111;SDS011;64011;56.312;44.048;2023-09-18T03:04:44;13.60;;;5.13;;
38111;SDS011;64011;56.312;44.048;2023-09-18T03:06:45;13.30;;;5.18;;
38111;SDS011;64011;56.312;44.048;2023-09-18T03:08:46;15.95;;;5.38;;
38111;SDS011;64011;56.312;44.048;2023-09-18T03:10:46;14.05;;;5.60;;
38111;SDS011;64011;56.312;44.048;2023-09-18T03:12:47;14.32;;;5.63;;
38111;SDS011;64011;56.312;44.048;2023-09-18T03:14:48;15.23;;;5.30;;
38111;SDS011;64011;56.312;44.048;2023-09-18T03:16:51;13.68;;;4.75;;
38111;SDS011;64011;56.312;44.048;2023-09-18T03:18:51;13.98;;;5.28;;
38111;SDS011;64011;56.312;44.048;2023-09-18T03:20:52;14.73;;;5.93;;
38111;SDS011;64011;56.312;44.048;2023-09-18T03:22:54;15.00;;;5.72;;
38111;SDS011;64011;56.312;44.048;2023-09-18T03:24:55;13.07;;;5.45;;
38111;SDS011;64011;56.312;44.048;2023-09-18T03:26:56;15.95;;;5.95;;
38111;SDS011;64011;56.312;44.048;2023-09-18T03:28:57;12.82;;;5.10;;
38111;SDS011;64011;56.312;44.048;2023-09-18T03:30:58;14.70;;;5.30;;
38111;SDS011;64011;56.312;44.048;2023-09-18T03:33:00;14.93;;;5.93;;
38111;SDS011;64011;56.312;44.048;2023-09-18T03:35:01;16.20;;;6.50;;
38111;SDS011;64011;56.312;44.048;2023-09-18T03:37:05;15.30;;;5.68;;
38111;SDS011;64011;56.312;44.048;2023-09-18T03:39:05;14.80;;;5.85;;
38111;SDS011;64011;56.312;44.048;2023-09-18T03:41:06;19.23;;;6.45;;
38111;SDS011;64011;56.312;44.048;2023-09-18T03:43:07;16.40;;;6.30;;
38111;SDS011;64011;56.312;44.048;2023-09-18T03:45:09;16.60;;;6.85;;
38111;SDS011;64011;56.312;44.048;2023-09-18T03:47:10;16.55;;;6.40;;
38111;SDS011;64011;56.312;44.048;2023-09-18T03:49:12;20.48;;;6.70;;
38111;SDS011;64011;56.312;44.048;2023-09-18T03:51:13;17.27;;;6.90;;
38111;SDS011;64011;56.312;44.048;2023-09-18T03:53:14;19.83;;;7.60;;
38111;SDS011;64011;56.312;44.048;2023-09-18T03:55:15;16.35;;;7.55;;
38111;SDS011;64011;56.312;44.048;2023-09-18T03:57:16;16.65;;;7.72;;
38111;SDS011;64011;56.312;44.048;2023-09-18T03:59:17;18.08;;;8.00;;
38111;SDS011;64011;56.312;44.048;2023-09-18T04:01:18;18.48;;;8.43;;
38111;SDS011;64011;56.312;44.048;2023-09-18T04:03:18;17.52;;;7.28;;
38111;SDS011;64011;56.312;44.048;2023-09-18T04:05:21;23.15;;;8.05;;
38111;SDS011;64011;56.312;44.048;2023-09-18T04:07:22;22.30;;;8.05;;
38111;SDS011;64011;56.312;44.048;2023-09-18T04:09:23;18.35;;;7.13;;
38111;SDS011;64011;56.312;44.048;2023-09-18T04:11:24;17.98;;;7.60;;
38111;SDS011;64011;56.312;44.048;2023-09-18T04:13:25;16.08;;;7.82;;
38111;SDS011;64011;56.312;44.048;2023-09-18T04:15:26;22.27;;;8.15;;
38111;SDS011;64011;56.312;44.048;2023-09-18T04:17:28;17.70;;;7.35;;
38111;SDS011;64011;56.312;44.048;2023-09-18T04:19:29;17.10;;;7.40;;
38111;SDS011;64011;56.312;44.048;2023-09-18T04:21:31;16.92;;;7.72;;
38111;SDS011;64011;56.312;44.048;2023-09-18T04:23:32;16.73;;;7.85;;
38111;SDS011;64011;56.312;44.048;2023-09-18T04:25:33;20.88;;;7.22;;
38111;SDS011;64011;56.312;44.048;2023-09-18T04:27:33;19.25;;;7.90;;
38111;SDS011;64011;56.312;44.048;2023-09-18T04:29:34;19.63;;;7.70;;
38111;SDS011;64011;56.312;44.048;2023-09-18T04:31:35;17.95;;;7.68;;
38111;SDS011;64011;56.312;44.048;2023-09-18T04:33:36;18.40;;;7.35;;
38111;SDS011;64011;56.312;44.048;2023-09-18T04:35:37;16.92;;;7.32;;
38111;SDS011;64011;56.312;44.048;2023-09-18T04:37:39;18.10;;;7.72;;
38111;SDS011;64011;56.312;44.048;2023-09-18T04:39:40;19.50;;;7.70;;
38111;SDS011;64011;56.312;44.048;2023-09-18T04:41:41;20.67;;;8.63;;
38111;SDS011;64011;56.312;44.048;2023-09-18T04:43:42;21.67;;;8.75;;
38111;SDS011;64011;56.312;44.048;2023-09-18T04:45:43;20.77;;;7.95;;
38111;SDS011;64011;56.312;44.048;2023-09-18T04:47:44;19.58;;;7.88;;
38111;SDS011;64011;56.312;44.048;2023-09-18T04:49:45;22.88;;;9.18;;
38111;SDS011;64011;56.312;44.048;2023-09-18T04:51:46;25.45;;;9.25;;
38111;SDS011;64011;56.312;44.048;2023-09-18T04:53:48;20.73;;;9.40;;
38111;SDS011;64011;56.312;44.048;2023-09-18T04:55:49;21.52;;;10.23;;
38111;SDS011;64011;56.312;44.048;2023-09-18T04:57:50;23.38;;;9.68;;
38111;SDS011;64011;56.312;44.048;2023-09-18T04:59:51;21.48;;;9.80;;
38111;SDS011;64011;56.312;44.048;2023-09-18T05:01:52;25.05;;;10.27;;
38111;SDS011;64011;56.312;44.048;2023-09-18T05:03:53;21.80;;;10.98;;
38111;SDS011;64011;56.312;44.048;2023-09-18T05:05:54;20.60;;;10.23;;
38111;SDS011;64011;56.312;44.048;2023-09-18T05:07:55;24.20;;;10.57;;
38111;SDS011;64011;56.312;44.048;2023-09-18T05:09:57;20.95;;;10.88;;
38111;SDS011;64011;56.312;44.048;2023-09-18T05:11:58;21.92;;;10.75;;
38111;SDS011;64011;56.312;44.048;2023-09-18T05:13:59;20.55;;;9.55;;
38111;SDS011;64011;56.312;44.048;2023-09-18T05:16:00;20.27;;;10.27;;
38111;SDS011;64011;56.312;44.048;2023-09-18T05:18:00;22.83;;;9.70;;
38111;SDS011;64011;56.312;44.048;2023-09-18T05:20:02;25.30;;;10.23;;
38111;SDS011;64011;56.312;44.048;2023-09-18T05:22:04;22.42;;;10.02;;
38111;SDS011;64011;56.312;44.048;2023-09-18T05:24:06;24.98;;;10.35;;
38111;SDS011;64011;56.312;44.048;2023-09-18T05:26:08;23.77;;;10.85;;
38111;SDS011;64011;56.312;44.048;2023-09-18T05:28:09;22.45;;;9.40;;
38111;SDS011;64011;56.312;44.048;2023-09-18T05:30:11;23.52;;;11.50;;
38111;SDS011;64011;56.312;44.048;2023-09-18T05:32:12;20.08;;;10.48;;
38111;SDS011;64011;56.312;44.048;2023-09-18T05:34:13;21.35;;;10.75;;
38111;SDS011;64011;56.312;44.048;2023-09-18T05:36:14;25.02;;;11.35;;
38111;SDS011;64011;56.312;44.048;2023-09-18T05:38:15;21.42;;;10.95;;
38111;SDS011;64011;56.312;44.048;2023-09-18T05:40:16;21.05;;;10.25;;
38111;SDS011;64011;56.312;44.048;2023-09-18T05:42:19;21.35;;;10.13;;
38111;SDS011;64011;56.312;44.048;2023-09-18T05:44:20;24.15;;;10.68;;
38111;SDS011;64011;56.312;44.048;2023-09-18T05:46:20;20.98;;;10.63;;
38111;SDS011;64011;56.312;44.048;2023-09-18T05:48:22;20.05;;;9.25;;
38111;SDS011;64011;56.312;44.048;2023-09-18T05:50:22;23.48;;;9.52;;
38111;SDS011;64011;56.312;44.048;2023-09-18T05:52:23;22.88;;;9.32;;
38111;SDS011;64011;56.312;44.048;2023-09-18T05:54:24;21.55;;;9.85;;
38111;SDS011;64011;56.312;44.048;2023-09-18T05:56:25;20.35;;;9.55;;
38111;SDS011;64011;56.312;44.048;2023-09-18T05:58:27;23.27;;;9.20;;
38111;SDS011;64011;56.312;44.048;2023-09-18T06:00:28;20.73;;;8.70;;
38111;SDS011;64011;56.312;44.048;2023-09-18T06:02:29;19.80;;;8.65;;
38111;SDS011;64011;56.312;44.048;2023-09-18T06:04:29;20.20;;;9.02;;
38111;SDS011;64011;56.312;44.048;2023-09-18T06:06:30;22.33;;;8.63;;
38111;SDS011;64011;56.312;44.048;2023-09-18T06:08:31;19.17;;;8.98;;
38111;SDS011;64011;56.312;44.048;2023-09-18T06:10:32;20.40;;;9.30;;
38111;SDS011;64011;56.312;44.048;2023-09-18T06:12:33;21.27;;;9.02;;
38111;SDS011;64011;56.312;44.048;2023-09-18T06:14:38;18.00;;;9.00;;
38111;SDS011;64011;56.312;44.048;2023-09-18T06:16:39;19.55;;;8.35;;
38111;SDS011;64011;56.312;44.048;2023-09-18T06:18:40;19.35;;;8.55;;
38111;SDS011;64011;56.312;44.048;2023-09-18T06:20:41;22.33;;;8.80;;
38111;SDS011;64011;56.312;44.048;2023-09-18T06:22:41;20.38;;;8.48;;
38111;SDS011;64011;56.312;44.048;2023-09-18T06:24:43;18.58;;;8.38;;
38111;SDS011;64011;56.312;44.048;2023-09-18T06:26:44;19.17;;;8.70;;
38111;SDS011;64011;56.312;44.048;2023-09-18T06:28:44;19.08;;;8.63;;
38111;SDS011;64011;56.312;44.048;2023-09-18T06:30:47;22.42;;;9.30;;
38111;SDS011;64011;56.312;44.048;2023-09-18T06:32:48;21.52;;;9.30;;
38111;SDS011;64011;56.312;44.048;2023-09-18T06:34:49;18.15;;;8.82;;
38111;SDS011;64011;56.312;44.048;2023-09-18T06:36:49;22.65;;;9.43;;
38111;SDS011;64011;56.312;44.048;2023-09-18T06:38:50;22.05;;;9.60;;
38111;SDS011;64011;56.312;44.048;2023-09-18T06:40:53;22.13;;;8.75;;
38111;SDS011;64011;56.312;44.048;2023-09-18T06:42:57;20.38;;;9.02;;
38111;SDS011;64011;56.312;44.048;2023-09-18T06:44:59;21.05;;;10.05;;
38111;SDS011;64011;56.312;44.048;2023-09-18T06:47:01;20.50;;;9.00;;
38111;SDS011;64011;56.312;44.048;2023-09-18T06:49:02;20.67;;;9.00;;
38111;SDS011;64011;56.312;44.048;2023-09-18T06:51:03;21.75;;;9.82;;
38111;SDS011;64011;56.312;44.048;2023-09-18T06:53:04;21.42;;;9.43;;
38111;SDS011;64011;56.312;44.048;2023-09-18T06:55:05;19.20;;;9.77;;
38111;SDS011;64011;56.312;44.048;2023-09-18T06:57:06;20.02;;;9.02;;
38111;SDS011;64011;56.312;44.048;2023-09-18T06:59:07;20.95;;;9.90;;
38111;SDS011;64011;56.312;44.048;2023-09-18T07:01:07;23.77;;;10.73;;
38111;SDS011;64011;56.312;44.048;2023-09-18T07:03:10;20.90;;;10.13;;
38111;SDS011;64011;56.312;44.048;2023-09-18T07:05:11;21.10;;;11.40;;
38111;SDS011;64011;56.312;44.048;2023-09-18T07:07:12;23.38;;;10.98;;
38111;SDS011;64011;56.312;44.048;2023-09-18T07:09:12;24.00;;;11.52;;
38111;SDS011;64011;56.312;44.048;2023-09-18T07:11:13;24.83;;;12.20;;
38111;SDS011;64011;56.312;44.048;2023-09-18T07:13:14;24.52;;;10.77;;
38111;SDS011;64011;56.312;44.048;2023-09-18T07:15:15;20.80;;;9.73;;
38111;SDS011;64011;56.312;44.048;2023-09-18T07:17:16;24.38;;;10.23;;
38111;SDS011;64011;56.312;44.048;2023-09-18T07:19:18;24.08;;;11.20;;
38111;SDS011;64011;56.312;44.048;2023-09-18T07:21:19;20.15;;;9.50;;
38111;SDS011;64011;56.312;44.048;2023-09-18T07:23:20;21.90;;;10.18;;
38111;SDS011;64011;56.312;44.048;2023-09-18T07:25:21;21.73;;;9.35;;
38111;SDS011;64011;56.312;44.048;2023-09-18T07:27:22;31.50;;;10.18;;
38111;SDS011;64011;56.312;44.048;2023-09-18T07:29:23;20.27;;;9.25;;
38111;SDS011;64011;56.312;44.048;2023-09-18T07:31:24;19.05;;;8.85;;
38111;SDS011;64011;56.312;44.048;2023-09-18T07:33:25;18.92;;;8.90;;
38111;SDS011;64011;56.312;44.048;2023-09-18T07:35:28;23.90;;;8.77;;
38111;SDS011;64011;56.312;44.048;2023-09-18T07:37:29;19.85;;;7.65;;
38111;SDS011;64011;56.312;44.048;2023-09-18T07:39:30;19.75;;;7.78;;
38111;SDS011;64011;56.312;44.048;2023-09-18T07:41:31;17.83;;;7.30;;
38111;SDS011;64011;56.312;44.048;2023-09-18T07:43:32;19.42;;;8.25;;
38111;SDS011;64011;56.312;44.048;2023-09-18T07:45:33;18.83;;;6.90;;
38111;SDS011;64011;56.312;44.048;2023-09-18T07:47:34;17.52;;;6.68;;
38111;SDS011;64011;56.312;44.048;2023-09-18T07:49:35;18.20;;;6.90;;
38111;SDS011;64011;56.312;44.048;2023-09-18T07:51:37;19.08;;;7.10;;
38111;SDS011;64011;56.312;44.048;2023-09-18T07:53:39;17.38;;;6.65;;
38111;SDS011;64011;56.312;44.048;2023-09-18T07:55:39;16.80;;;6.47;;
38111;SDS011;64011;56.312;44.048;2023-09-18T07:57:40;15.48;;;5.55;;
38111;SDS011;64011;56.312;44.048;2023-09-18T07:59:41;16.30;;;6.38;;
38111;SDS011;64011;56.312;44.048;2023-09-18T08:01:42;16.90;;;7.47;;
38111;SDS011;64011;56.312;44.048;2023-09-18T08:03:43;18.80;;;6.97;;
38111;SDS011;64011;56.312;44.048;2023-09-18T08:05:44;15.95;;;6.20;;
38111;SDS011;64011;56.312;44.048;2023-09-18T08:07:46;15.73;;;6.00;;
38111;SDS011;64011;56.312;44.048;2023-09-18T08:09:47;16.50;;;7.30;;
38111;SDS011;64011;56.312;44.048;2023-09-18T08:11:48;16.50;;;5.63;;
38111;SDS011;64011;56.312;44.048;2023-09-18T08:13:49;20.52;;;6.55;;
38111;SDS011;64011;56.312;44.048;2023-09-18T08:15:50;18.85;;;5.93;;
38111;SDS011;64011;56.312;44.048;2023-09-18T08:17:51;17.27;;;6.18;;
38111;SDS011;64011;56.312;44.048;2023-09-18T08:19:52;18.05;;;5.68;;
38111;SDS011;64011;56.312;44.048;2023-09-18T08:21:53;16.75;;;6.28;;
38111;SDS011;64011;56.312;44.048;2023-09-18T08:23:56;20.42;;;6.68;;
38111;SDS011;64011;56.312;44.048;2023-09-18T08:25:57;20.20;;;6.40;;
38111;SDS011;64011;56.312;44.048;2023-09-18T08:27:58;19.08;;;6.53;;
38111;SDS011;64011;56.312;44.048;2023-09-18T08:29:59;20.08;;;6.93;;
38111;SDS011;64011;56.312;44.048;2023-09-18T08:32:00;20.92;;;6.85;;
38111;SDS011;64011;56.312;44.048;2023-09-18T08:34:01;18.23;;;6.30;;
38111;SDS011;64011;56.312;44.048;2023-09-18T08:36:01;18.20;;;6.50;;
38111;SDS011;64011;56.312;44.048;2023-09-18T08:38:03;17.80;;;6.78;;
38111;SDS011;64011;56.312;44.048;2023-09-18T08:40:06;22.60;;;7.15;;
38111;SDS011;64011;56.312;44.048;2023-09-18T08:42:08;20.77;;;7.45;;
38111;SDS011;64011;56.312;44.048;2023-09-18T08:44:09;20.98;;;6.75;;
38111;SDS011;64011;56.312;44.048;2023-09-18T08:46:12;18.42;;;6.88;;
38111;SDS011;64011;56.312;44.048;2023-09-18T08:48:13;19.55;;;7.45;;
38111;SDS011;64011;56.312;44.048;2023-09-18T08:50:14;20.17;;;6.85;;
38111;SDS011;64011;56.312;44.048;2023-09-18T08:52:15;21.25;;;6.90;;
38111;SDS011;64011;56.312;44.048;2023-09-18T08:54:18;19.02;;;7.38;;
38111;SDS011;64011;56.312;44.048;2023-09-18T08:56:21;21.25;;;7.07;;
38111;SDS011;64011;56.312;44.048;2023-09-18T08:58:22;19.40;;;7.50;;
38111;SDS011;64011;56.312;44.048;2023-09-18T09:00:23;18.30;;;6.80;;
38111;SDS011;64011;56.312;44.048;2023-09-18T09:02:24;21.13;;;7.20;;
38111;SDS011;64011;56.312;44.048;2023-09-18T09:04:25;18.55;;;7.22;;
38111;SDS011;64011;56.312;44.048;2023-09-18T09:06:26;18.30;;;6.68;;
38111;SDS011;64011;56.312;44.048;2023-09-18T09:08:27;19.23;;;7.30;;
38111;SDS011;64011;56.312;44.048;2023-09-18T09:10:28;18.25;;;6.57;;
38111;SDS011;64011;56.312;44.048;2023-09-18T09:12:51;16.33;;;6.68;;
38111;SDS011;64011;56.312;44.048;2023-09-18T09:15:03;17.70;;;7.28;;
38111;SDS011;64011;56.312;44.048;2023-09-18T09:17:06;19.42;;;7.00;;
38111;SDS011;64011;56.312;44.048;2023-09-18T09:19:07;16.38;;;6.88;;
38111;SDS011;64011;56.312;44.048;2023-09-18T09:21:08;16.95;;;6.32;;
38111;SDS011;64011;56.312;44.048;2023-09-18T09:23:09;19.58;;;6.75;;
38111;SDS011;64011;56.312;44.048;2023-09-18T09:25:23;21.52;;;7.15;;
38111;SDS011;64011;56.312;44.048;2023-09-18T09:27:25;20.90;;;7.50;;
38111;SDS011;64011;56.312;44.048;2023-09-18T09:29:28;17.20;;;7.30;;
38111;SDS011;64011;56.312;44.048;2023-09-18T09:31:29;18.25;;;7.20;;
38111;SDS011;64011;56.312;44.048;2023-09-18T09:33:30;18.08;;;7.22;;
38111;SDS011;64011;56.312;44.048;2023-09-18T09:35:31;18.75;;;8.05;;
38111;SDS011;64011;56.312;44.048;2023-09-18T09:37:33;20.55;;;8.20;;
38111;SDS011;64011;56.312;44.048;2023-09-18T09:39:34;16.35;;;7.25;;
38111;SDS011;64011;56.312;44.048;2023-09-18T09:41:35;20.08;;;7.30;;
38111;SDS011;64011;56.312;44.048;2023-09-18T09:43:36;17.00;;;6.63;;
38111;SDS011;64011;56.312;44.048;2023-09-18T09:45:38;13.95;;;5.72;;
38111;SDS011;64011;56.312;44.048;2023-09-18T09:47:42;14.98;;;5.65;;
38111;SDS011;64011;56.312;44.048;2023-09-18T09:49:47;17.63;;;5.97;;
38111;SDS011;64011;56.312;44.048;2023-09-18T09:51:48;15.30;;;5.60;;
38111;SDS011;64011;56.312;44.048;2023-09-18T09:53:49;16.00;;;5.50;;
38111;SDS011;64011;56.312;44.048;2023-09-18T09:55:53;16.55;;;5.22;;
38111;SDS011;64011;56.312;44.048;2023-09-18T09:57:56;14.63;;;5.32;;
38111;SDS011;64011;56.312;44.048;2023-09-18T10:00:02;13.07;;;5.40;;
38111;SDS011;64011;56.312;44.048;2023-09-18T10:02:07;15.15;;;4.95;;
38111;SDS011;64011;56.312;44.048;2023-09-18T10:04:09;14.63;;;4.82;;
38111;SDS011;64011;56.312;44.048;2023-09-18T10:06:10;16.08;;;5.68;;
38111;SDS011;64011;56.312;44.048;2023-09-18T10:08:13;17.75;;;5.20;;
38111;SDS011;64011;56.312;44.048;2023-09-18T10:10:16;15.43;;;5.40;;
38111;SDS011;64011;56.312;44.048;2023-09-18T10:12:17;13.15;;;5.25;;
38111;SDS011;64011;56.312;44.048;2023-09-18T10:14:19;17.35;;;5.30;;
38111;SDS011;64011;56.312;44.048;2023-09-18T10:16:21;13.75;;;5.20;;
38111;SDS011;64011;56.312;44.048;2023-09-18T10:18:27;15.52;;;5.18;;
38111;SDS011;64011;56.312;44.048;2023-09-18T10:20:29;13.57;;;5.65;;
38111;SDS011;64011;56.312;44.048;2023-09-18T10:22:30;14.40;;;5.70;;
38111;SDS011;64011;56.312;44.048;2023-09-18T10:24:36;19.00;;;5.53;;
38111;SDS011;64011;56.312;44.048;2023-09-18T10:26:39;14.00;;;4.65;;
38111;SDS011;64011;56.312;44.048;2023-09-18T10:28:44;16.25;;;5.43;;
38111;SDS011;64011;56.312;44.048;2023-09-18T10:30:45;15.55;;;5.90;;
38111;SDS011;64011;56.312;44.048;2023-09-18T10:32:46;21.55;;;5.43;;
38111;SDS011;64011;56.312;44.048;2023-09-18T10:34:48;14.07;;;5.47;;
38111;SDS011;64011;56.312;44.048;2023-09-18T10:36:50;16.50;;;5.72;;
38111;SDS011;64011;56.312;44.048;2023-09-18T10:38:52;15.70;;;5.22;;
38111;SDS011;64011;56.312;44.048;2023-09-18T10:40:53;13.82;;;5.28;;
38111;SDS011;64011;56.312;44.048;2023-09-18T10:42:54;15.23;;;5.47;;
38111;SDS011;64011;56.312;44.048;2023-09-18T10:44:57;16.80;;;5.75;;
38111;SDS011;64011;56.312;44.048;2023-09-18T10:46:58;14.82;;;5.65;;
38111;SDS011;64011;56.312;44.048;2023-09-18T10:49:00;16.60;;;5.53;;
38111;SDS011;64011;56.312;44.048;2023-09-18T10:51:03;13.23;;;5.57;;
38111;SDS011;64011;56.312;44.048;2023-09-18T10:53:04;13.13;;;5.85;;
38111;SDS011;64011;56.312;44.048;2023-09-18T10:55:06;17.30;;;6.07;;
38111;SDS011;64011;56.312;44.048;2023-09-18T10:57:07;15.02;;;5.38;;
38111;SDS011;64011;56.312;44.048;2023-09-18T10:59:08;13.60;;;5.18;;
38111;SDS011;64011;56.312;44.048;2023-09-18T11:01:10;15.95;;;6.03;;
38111;SDS011;64011;56.312;44.048;2023-09-18T11:03:13;15.38;;;5.60;;
38111;SDS011;64011;56.312;44.048;2023-09-18T11:05:23;17.15;;;5.53;;
38111;SDS011;64011;56.312;44.048;2023-09-18T11:07:30;15.77;;;5.82;;
38111;SDS011;64011;56.312;44.048;2023-09-18T11:09:31;13.30;;;4.90;;
38111;SDS011;64011;56.312;44.048;2023-09-18T11:11:40;18.38;;;7.65;;
38111;SDS011;64011;56.312;44.048;2023-09-18T11:13:42;18.80;;;6.50;;
38111;SDS011;64011;56.312;44.048;2023-09-18T11:15:44;15.60;;;5.82;;
38111;SDS011;64011;56.312;44.048;2023-09-18T11:17:44;18.55;;;6.97;;
38111;SDS011;64011;56.312;44.048;2023-09-18T11:20:04;16.38;;;5.80;;
38111;SDS011;64011;56.312;44.048;2023-09-18T11:22:06;15.15;;;5.57;;
38111;SDS011;64011;56.312;44.048;2023-09-18T11:24:15;15.55;;;5.82;;
38111;SDS011;64011;56.312;44.048;2023-09-18T11:28:22;14.25;;;6.07;;
38111;SDS011;64011;56.312;44.048;2023-09-18T11:30:24;15.07;;;5.82;;
38111;SDS011;64011;56.312;44.048;2023-09-18T11:32:37;14.48;;;5.68;;
38111;SDS011;64011;56.312;44.048;2023-09-18T11:34:38;14.07;;;5.82;;
38111;SDS011;64011;56.312;44.048;2023-09-18T11:36:39;12.73;;;5.40;;
38111;SDS011;64011;56.312;44.048;2023-09-18T11:38:53;17.08;;;5.60;;
38111;SDS011;64011;56.312;44.048;2023-09-18T11:40:56;13.60;;;5.78;;
38111;SDS011;64011;56.312;44.048;2023-09-18T11:45:20;13.15;;;5.70;;
38111;SDS011;64011;56.312;44.048;2023-09-18T11:47:23;14.77;;;5.78;;
38111;SDS011;64011;56.312;44.048;2023-09-18T11:49:24;13.98;;;4.97;;
38111;SDS011;64011;56.312;44.048;2023-09-18T11:51:25;13.65;;;5.35;;
38111;SDS011;64011;56.312;44.048;2023-09-18T11:53:27;11.57;;;5.05;;
38111;SDS011;64011;56.312;44.048;2023-09-18T11:55:28;13.63;;;5.30;;